createdAt,value
2019-05-26T00:00:33.878Z,82.000732
2019-05-26T00:01:33.896Z,82.104492
2019-05-26T00:02:33.950Z,82.000732
2019-05-26T00:03:34.012Z,82.000732
2019-05-26T00:04:34.015Z,82.305908
2019-05-26T00:05:34.043Z,82.409668
2019-05-26T00:06:34.063Z,82.208252
2019-05-26T00:07:34.131Z,82.208252
2019-05-26T00:08:34.223Z,82.305908
2019-05-26T00:09:34.228Z,82.104492
2019-05-26T00:10:34.247Z,82.104492
2019-05-26T00:11:34.243Z,82.104492
2019-05-26T00:12:34.264Z,82.104492
2019-05-26T00:13:34.411Z,82.104492
2019-05-26T00:14:34.404Z,82.104492
2019-05-26T00:15:34.430Z,82.141113
2019-05-26T00:16:34.443Z,82.141113
2019-05-26T00:17:34.490Z,82.208252
2019-05-26T00:18:34.509Z,82.104492
2019-05-26T00:19:34.504Z,82.141113
2019-05-26T00:20:34.548Z,82.244873
2019-05-26T00:21:34.603Z,82.446289
2019-05-26T00:22:34.605Z,82.409668
2019-05-26T00:23:34.627Z,82.550049
2019-05-26T00:24:34.698Z,82.653809
2019-05-26T00:25:34.724Z,82.550049
2019-05-26T00:26:34.721Z,82.550049
2019-05-26T00:27:34.802Z,82.653809
2019-05-26T00:28:34.873Z,82.861328
2019-05-26T00:29:34.921Z,82.861328
2019-05-26T00:30:34.955Z,82.958984
2019-05-26T00:31:34.967Z,82.958984
2019-05-26T00:32:35.002Z,82.861328
2019-05-26T00:33:35.008Z,82.958984
2019-05-26T00:34:35.033Z,83.062744
2019-05-26T00:35:35.043Z,83.062744
2019-05-26T00:36:35.062Z,83.062744
2019-05-26T00:37:48.126Z,82.958984
2019-05-26T00:38:35.302Z,83.062744
2019-05-26T00:39:35.288Z,83.062744
2019-05-26T00:40:35.265Z,83.166504
2019-05-26T00:41:35.337Z,83.270264
2019-05-26T00:42:35.374Z,83.270264
2019-05-26T00:43:35.433Z,83.166504
2019-05-26T00:44:35.470Z,83.270264
2019-05-26T00:45:35.531Z,83.166504
2019-05-26T00:46:35.565Z,83.166504
2019-05-26T00:47:35.572Z,83.166504
2019-05-26T00:48:35.583Z,83.270264
2019-05-26T00:49:35.775Z,83.36792
2019-05-26T00:50:35.781Z,83.47168
2019-05-26T00:51:35.831Z,83.410645
2019-05-26T00:52:35.901Z,83.47168
2019-05-26T00:53:35.937Z,83.306885
2019-05-26T00:54:35.923Z,83.306885
2019-05-26T00:55:35.961Z,83.306885
2019-05-26T00:56:36.004Z,83.36792
2019-05-26T00:57:36.099Z,83.410645
2019-05-26T00:58:36.313Z,83.410645
2019-05-26T00:59:36.286Z,83.306885
2019-05-26T01:00:36.340Z,83.306885
2019-05-26T01:01:36.421Z,83.410645
2019-05-26T01:02:36.441Z,83.306885
2019-05-26T01:03:36.578Z,83.306885
2019-05-26T01:04:36.603Z,83.306885
2019-05-26T01:05:36.645Z,83.410645
2019-05-26T01:06:36.754Z,83.612061
2019-05-26T01:07:36.771Z,83.612061
2019-05-26T01:08:36.811Z,83.612061
2019-05-26T01:09:36.944Z,83.514404
2019-05-26T01:10:36.928Z,83.514404
2019-05-26T01:11:36.956Z,83.410645
2019-05-26T01:12:37.030Z,83.514404
2019-05-26T01:13:37.045Z,83.514404
2019-05-26T01:14:37.238Z,83.410645
2019-05-26T01:15:37.346Z,83.306885
2019-05-26T01:16:37.340Z,83.306885
2019-05-26T01:17:37.340Z,83.306885
2019-05-26T01:18:37.430Z,83.306885
2019-05-26T01:19:37.509Z,83.306885
2019-05-26T01:20:37.512Z,83.306885
2019-05-26T01:21:37.548Z,83.306885
2019-05-26T01:22:37.623Z,83.203125
2019-05-26T01:23:37.723Z,83.099365
2019-05-26T01:24:37.723Z,83.203125
2019-05-26T01:25:37.761Z,83.099365
2019-05-26T01:26:37.838Z,83.203125
2019-05-26T01:27:37.924Z,83.203125
2019-05-26T01:28:37.970Z,83.203125
2019-05-26T01:29:38.007Z,83.099365
2019-05-26T01:30:38.056Z,83.203125
2019-05-26T01:31:38.155Z,83.099365
2019-05-26T01:32:38.162Z,83.203125
2019-05-26T01:33:38.169Z,83.203125
2019-05-26T01:34:38.187Z,83.203125
2019-05-26T01:35:38.256Z,83.306885
2019-05-26T01:36:38.294Z,83.447266
2019-05-26T01:37:38.343Z,83.447266
2019-05-26T01:38:38.392Z,83.551025
2019-05-26T01:39:38.474Z,83.758545
2019-05-26T01:40:38.633Z,83.959961
2019-05-26T01:41:38.739Z,84.16748
2019-05-26T01:42:38.874Z,84.063721
2019-05-26T01:43:38.980Z,83.959961
2019-05-26T01:44:38.996Z,84.063721
2019-05-26T01:45:39.046Z,84.16748
2019-05-26T01:46:39.095Z,84.16748
2019-05-26T01:47:39.137Z,84.16748
2019-05-26T01:48:39.203Z,84.27124
2019-05-26T01:49:39.324Z,84.472656
2019-05-26T01:50:39.415Z,84.680176
2019-05-26T01:51:39.470Z,84.881592
2019-05-26T01:52:39.576Z,84.783936
2019-05-26T01:53:39.695Z,84.680176
2019-05-26T01:54:40.863Z,84.680176
2019-05-26T01:55:39.889Z,84.881592
2019-05-26T01:56:39.855Z,84.924316
2019-05-26T01:57:39.995Z,84.820557
2019-05-26T01:58:40.177Z,84.924316
2019-05-26T01:59:40.241Z,84.924316
2019-05-26T02:00:41.310Z,85.028076
2019-05-26T02:01:40.414Z,85.125732
2019-05-26T02:02:40.407Z,85.028076
2019-05-26T02:03:40.536Z,85.125732
2019-05-26T02:04:40.675Z,85.028076
2019-05-26T02:05:40.754Z,84.924316
2019-05-26T02:06:40.797Z,84.924316
2019-05-26T02:07:40.896Z,85.028076
2019-05-26T02:08:40.868Z,85.028076
2019-05-26T02:09:41.020Z,85.028076
2019-05-26T02:10:41.042Z,85.028076
2019-05-26T02:11:41.151Z,85.125732
2019-05-26T02:12:41.043Z,85.125732
2019-05-26T02:13:41.035Z,85.028076
2019-05-26T02:14:40.992Z,85.028076
2019-05-26T02:15:41.121Z,85.125732
2019-05-26T02:16:42.108Z,85.125732
2019-05-26T02:17:41.379Z,85.125732
2019-05-26T02:18:41.400Z,85.229492
2019-05-26T02:19:41.463Z,85.229492
2019-05-26T02:20:41.535Z,85.333252
2019-05-26T02:21:41.542Z,85.437012
2019-05-26T02:22:41.702Z,85.333252
2019-05-26T02:23:41.565Z,85.437012
2019-05-26T02:24:41.708Z,85.296631
2019-05-26T02:25:41.740Z,85.229492
2019-05-26T02:26:41.738Z,85.296631
2019-05-26T02:27:41.809Z,85.394287
2019-05-26T02:28:41.802Z,85.498047
2019-05-26T02:29:41.930Z,85.601807
2019-05-26T02:30:42.019Z,85.601807
2019-05-26T02:31:42.171Z,85.498047
2019-05-26T02:32:43.406Z,85.498047
2019-05-26T02:33:42.317Z,85.498047
2019-05-26T02:34:42.466Z,85.498047
2019-05-26T02:35:42.536Z,85.498047
2019-05-26T02:36:42.563Z,85.601807
2019-05-26T02:37:42.850Z,85.705566
2019-05-26T02:38:59.689Z,85.803223
2019-05-26T02:39:43.883Z,85.803223
2019-05-26T02:40:42.892Z,85.906982
2019-05-26T02:41:42.940Z,85.906982
2019-05-26T02:42:44.060Z,86.114502
2019-05-26T02:43:43.152Z,86.218262
2019-05-26T02:44:43.193Z,86.315918
2019-05-26T02:45:43.255Z,86.419678
2019-05-26T02:46:43.313Z,86.315918
2019-05-26T02:47:43.365Z,86.523438
2019-05-26T02:48:43.490Z,86.315918
2019-05-26T02:49:43.541Z,86.730957
2019-05-26T02:50:43.679Z,86.523438
2019-05-26T02:51:43.691Z,86.419678
2019-05-26T02:52:43.738Z,86.315918
2019-05-26T02:53:43.851Z,86.383057
2019-05-26T02:54:43.913Z,86.279297
2019-05-26T02:55:43.970Z,86.175537
2019-05-26T02:56:44.030Z,86.175537
2019-05-26T02:57:44.091Z,86.279297
2019-05-26T02:58:44.183Z,86.175537
2019-05-26T02:59:44.223Z,86.071777
2019-05-26T03:00:44.320Z,86.071777
2019-05-26T03:02:00.742Z,86.035156
2019-05-26T03:02:45.362Z,85.723877
2019-05-26T03:03:44.476Z,85.723877
2019-05-26T03:04:44.548Z,85.522461
2019-05-26T03:05:44.646Z,85.723877
2019-05-26T03:06:44.652Z,85.723877
2019-05-26T03:07:44.741Z,85.626221
2019-05-26T03:08:44.834Z,85.522461
2019-05-26T03:09:44.929Z,85.38208
2019-05-26T03:10:45.041Z,85.27832
2019-05-26T03:11:45.116Z,85.174561
2019-05-26T03:12:45.176Z,84.967041
2019-05-26T03:13:45.235Z,84.93042
2019-05-26T03:14:45.406Z,84.625244
2019-05-26T03:15:45.475Z,84.417725
2019-05-26T03:16:45.542Z,84.313965
2019-05-26T03:17:45.617Z,84.216309
2019-05-26T03:18:45.673Z,84.112549
2019-05-26T03:19:45.790Z,84.008789
2019-05-26T03:20:45.847Z,84.417725
2019-05-26T03:21:45.909Z,84.216309
2019-05-26T03:22:45.963Z,84.008789
2019-05-26T03:23:46.022Z,84.008789
2019-05-26T03:24:46.105Z,84.216309
2019-05-26T03:25:46.179Z,84.313965
2019-05-26T03:26:46.278Z,84.313965
2019-05-26T03:27:46.349Z,84.216309
2019-05-26T03:28:46.453Z,84.112549
2019-05-26T03:29:46.539Z,84.216309
2019-05-26T03:30:46.680Z,84.277344
2019-05-26T03:31:46.705Z,84.173584
2019-05-26T03:32:46.698Z,84.069824
2019-05-26T03:33:46.701Z,84.173584
2019-05-26T03:34:46.729Z,84.173584
2019-05-26T03:35:46.765Z,84.277344
2019-05-26T03:36:46.773Z,84.277344
2019-05-26T03:37:46.770Z,84.277344
2019-05-26T03:38:46.774Z,84.173584
2019-05-26T03:39:46.828Z,84.173584
2019-05-26T03:40:46.804Z,84.173584
2019-05-26T03:41:46.817Z,84.277344
2019-05-26T03:42:46.822Z,84.277344
2019-05-26T03:43:46.823Z,84.381104
2019-05-26T03:44:46.840Z,84.381104
2019-05-26T03:45:46.902Z,84.381104
2019-05-26T03:46:46.915Z,84.58252
2019-05-26T03:47:46.925Z,84.58252
2019-05-26T03:48:46.972Z,84.686279
2019-05-26T03:49:46.981Z,84.58252
2019-05-26T03:50:47.052Z,84.47876
2019-05-26T03:51:47.093Z,84.47876
2019-05-26T03:52:47.106Z,84.47876
2019-05-26T03:53:47.130Z,84.338379
2019-05-26T03:54:47.201Z,84.240723
2019-05-26T03:55:47.340Z,84.338379
2019-05-26T03:56:47.379Z,84.338379
2019-05-26T03:57:47.393Z,84.240723
2019-05-26T03:58:47.428Z,84.442139
2019-05-26T03:59:47.441Z,84.338379
2019-05-26T04:00:47.491Z,84.442139
2019-05-26T04:01:47.505Z,84.442139
2019-05-26T04:02:47.663Z,84.338379
2019-05-26T04:03:47.768Z,84.240723
2019-05-26T04:04:47.821Z,84.338379
2019-05-26T04:05:47.888Z,84.301758
2019-05-26T04:06:47.918Z,84.197998
2019-05-26T04:07:47.955Z,84.503174
2019-05-26T04:08:48.978Z,84.301758
2019-05-26T04:10:03.479Z,84.301758
2019-05-26T04:10:48.107Z,84.405518
2019-05-26T04:11:48.129Z,84.503174
2019-05-26T04:12:48.140Z,84.197998
2019-05-26T04:13:48.194Z,84.094238
2019-05-26T04:14:48.210Z,84.197998
2019-05-26T04:15:48.208Z,84.405518
2019-05-26T04:16:48.264Z,84.405518
2019-05-26T04:17:48.252Z,84.503174
2019-05-26T04:18:48.286Z,84.405518
2019-05-26T04:19:48.279Z,84.301758
2019-05-26T04:20:48.295Z,84.301758
2019-05-26T04:21:48.328Z,84.301758
2019-05-26T04:22:48.356Z,84.405518
2019-05-26T04:23:48.386Z,84.362793
2019-05-26T04:24:49.381Z,84.259033
2019-05-26T04:25:48.420Z,84.362793
2019-05-26T04:26:48.454Z,84.362793
2019-05-26T04:27:48.480Z,84.362793
2019-05-26T04:28:48.488Z,84.362793
2019-05-26T04:29:48.495Z,84.466553
2019-05-26T04:30:48.548Z,84.362793
2019-05-26T04:31:48.607Z,84.466553
2019-05-26T04:32:48.603Z,84.466553
2019-05-26T04:33:48.625Z,84.771729
2019-05-26T04:34:48.633Z,84.979248
2019-05-26T04:35:48.669Z,84.570312
2019-05-26T04:36:48.786Z,84.570312
2019-05-26T04:37:48.825Z,84.466553
2019-05-26T04:38:48.915Z,84.362793
2019-05-26T04:39:48.959Z,84.466553
2019-05-26T04:40:49.003Z,84.466553
2019-05-26T04:41:49.050Z,84.667969
2019-05-26T04:42:49.068Z,84.667969
2019-05-26T04:43:49.165Z,84.570312
2019-05-26T04:44:49.219Z,84.570312
2019-05-26T04:45:49.238Z,84.570312
2019-05-26T04:46:49.297Z,84.527588
2019-05-26T04:47:49.377Z,84.631348
2019-05-26T04:48:49.464Z,84.527588
2019-05-26T04:49:49.530Z,84.631348
2019-05-26T04:50:49.547Z,84.631348
2019-05-26T04:51:49.579Z,84.832764
2019-05-26T04:53:05.040Z,84.832764
2019-05-26T04:53:49.633Z,84.735107
2019-05-26T04:54:49.659Z,84.832764
2019-05-26T04:55:49.684Z,84.735107
2019-05-26T04:56:49.700Z,84.735107
2019-05-26T04:57:49.774Z,84.735107
2019-05-26T04:58:49.790Z,84.832764
2019-05-26T04:59:49.827Z,84.692383
2019-05-26T05:00:49.837Z,84.588623
2019-05-26T05:01:49.827Z,84.588623
2019-05-26T05:02:49.862Z,84.490967
2019-05-26T05:03:49.858Z,84.490967
2019-05-26T05:04:49.881Z,84.387207
2019-05-26T05:05:49.897Z,84.387207
2019-05-26T05:06:49.902Z,84.387207
2019-05-26T05:07:49.948Z,84.490967
2019-05-26T05:08:49.950Z,84.344482
2019-05-26T05:09:49.951Z,84.344482
2019-05-26T05:10:49.980Z,84.246826
2019-05-26T05:11:49.997Z,84.143066
2019-05-26T05:12:50.020Z,84.143066
2019-05-26T05:13:50.049Z,84.448242
2019-05-26T05:14:50.039Z,84.344482
2019-05-26T05:15:50.068Z,84.143066
2019-05-26T05:16:50.112Z,84.143066
2019-05-26T05:17:50.166Z,84.204102
2019-05-26T05:18:50.232Z,83.795166
2019-05-26T05:19:50.271Z,84.002686
2019-05-26T05:20:50.289Z,84.002686
2019-05-26T05:21:50.352Z,84.307861
2019-05-26T05:22:50.390Z,83.898926
2019-05-26T05:23:50.547Z,83.48999
2019-05-26T05:24:50.539Z,83.59375
2019-05-26T05:25:50.537Z,83.69751
2019-05-26T05:26:50.539Z,84.106445
2019-05-26T05:27:50.676Z,83.654785
2019-05-26T05:28:50.730Z,83.453369
2019-05-26T05:29:50.771Z,83.654785
2019-05-26T05:30:50.802Z,83.654785
2019-05-26T05:31:50.861Z,83.453369
2019-05-26T05:32:50.899Z,83.349609
2019-05-26T05:33:50.983Z,83.148193
2019-05-26T05:34:51.013Z,83.111572
2019-05-26T05:35:51.056Z,83.312988
2019-05-26T05:36:51.109Z,83.312988
2019-05-26T05:37:51.131Z,82.904053
2019-05-26T05:38:51.173Z,82.800293
2019-05-26T05:39:51.224Z,82.763672
2019-05-26T05:40:59.316Z,82.763672
2019-05-26T05:41:51.241Z,82.458496
2019-05-26T05:42:51.268Z,82.867432
2019-05-26T05:43:51.297Z,82.458496
2019-05-26T05:44:51.317Z,82.15332
2019-05-26T05:45:51.343Z,82.012939
2019-05-26T05:46:51.357Z,82.116699
2019-05-26T05:47:51.365Z,81.90918
2019-05-26T05:48:51.415Z,81.201172
2019-05-26T05:49:51.426Z,81.402588
2019-05-26T05:50:51.473Z,81.90918
2019-05-26T05:51:51.477Z,81.707764
2019-05-26T05:52:51.487Z,81.402588
2019-05-26T05:53:51.536Z,81.811523
2019-05-26T05:54:51.570Z,81.365967
2019-05-26T05:55:51.612Z,81.262207
2019-05-26T05:56:54.873Z,81.060791
2019-05-26T05:57:51.586Z,81.158447
2019-05-26T05:58:51.643Z,81.158447
2019-05-26T05:59:51.660Z,80.957031
2019-05-26T06:00:51.669Z,80.957031
2019-05-26T06:01:51.691Z,80.34668
2019-05-26T06:02:51.739Z,80.450439
2019-05-26T06:03:51.799Z,80.651855
2019-05-26T06:04:51.841Z,80.450439
2019-05-26T06:05:51.917Z,80.92041
2019-05-26T06:06:51.998Z,80.92041
2019-05-26T06:07:52.101Z,80.81665
2019-05-26T06:08:52.196Z,80.004883
2019-05-26T06:09:52.274Z,80.004883
2019-05-26T06:10:52.340Z,79.968262
2019-05-26T06:11:56.549Z,79.46167
2019-05-26T06:12:52.370Z,78.643799
2019-05-26T06:13:52.409Z,78.338623
2019-05-26T06:14:52.529Z,78.338623
2019-05-26T06:15:52.539Z,78.137207
2019-05-26T06:16:52.555Z,78.240967
2019-05-26T06:17:52.605Z,78.137207
2019-05-26T06:18:52.640Z,77.79541
2019-05-26T06:19:52.699Z,77.79541
2019-05-26T06:20:52.701Z,77.79541
2019-05-26T06:21:52.777Z,77.79541
2019-05-26T06:22:52.831Z,77.392578
2019-05-26T06:23:52.910Z,76.477051
2019-05-26T06:24:52.988Z,76.983643
2019-05-26T06:25:53.056Z,77.185059
2019-05-26T06:26:53.088Z,76.580811
2019-05-26T06:27:53.121Z,76.373291
2019-05-26T06:28:53.168Z,76.477051
2019-05-26T06:29:58.677Z,76.373291
2019-05-26T06:30:53.217Z,76.580811
2019-05-26T06:31:53.454Z,75.970459
2019-05-26T06:32:53.262Z,75.561523
2019-05-26T06:33:53.286Z,75.665283
2019-05-26T06:34:53.315Z,75.970459
2019-05-26T06:35:53.416Z,75.561523
2019-05-26T06:36:53.425Z,76.068115
2019-05-26T06:37:53.451Z,76.135254
2019-05-26T06:38:53.468Z,75.219727
2019-05-26T06:39:53.481Z,75.427246
2019-05-26T06:40:53.524Z,75.12207
2019-05-26T06:41:53.541Z,75.018311
2019-05-26T06:42:53.591Z,74.615479
2019-05-26T06:43:53.667Z,74.713135
2019-05-26T06:44:54.199Z,74.816895
2019-05-26T06:45:53.827Z,75.427246
2019-05-26T06:46:53.843Z,74.615479
2019-05-26T06:47:53.882Z,75.018311
2019-05-26T06:48:53.936Z,74.884033
2019-05-26T06:49:53.945Z,74.884033
2019-05-26T06:50:53.969Z,74.682617
2019-05-26T06:51:53.991Z,74.169922
2019-05-26T06:52:54.020Z,74.377441
2019-05-26T06:53:54.034Z,73.931885
2019-05-26T06:54:54.068Z,73.730469
2019-05-26T06:55:54.113Z,73.730469
2019-05-26T06:56:54.110Z,73.632812
2019-05-26T06:57:54.151Z,73.120117
2019-05-26T06:58:54.156Z,73.492432
2019-05-26T06:59:54.313Z,72.784424
2019-05-26T07:00:54.374Z,73.291016
2019-05-26T07:01:54.465Z,73.291016
2019-05-26T07:02:54.475Z,72.784424
2019-05-26T07:03:54.509Z,72.98584
2019-05-26T07:04:54.518Z,73.052979
2019-05-26T07:05:54.563Z,73.052979
2019-05-26T07:06:54.581Z,73.052979
2019-05-26T07:07:54.632Z,72.747803
2019-05-26T07:08:54.711Z,73.052979
2019-05-26T07:09:54.825Z,73.120117
2019-05-26T07:10:54.954Z,72.613525
2019-05-26T07:11:59.797Z,72.106934
2019-05-26T07:12:55.051Z,72.515869
2019-05-26T07:13:55.111Z,71.600342
2019-05-26T07:14:55.153Z,71.905518
2019-05-26T07:15:55.227Z,71.502686
2019-05-26T07:16:55.214Z,71.704102
2019-05-26T07:17:55.239Z,71.704102
2019-05-26T07:18:55.311Z,71.600342
2019-05-26T07:19:55.423Z,71.801758
2019-05-26T07:20:55.547Z,71.972656
2019-05-26T07:21:55.588Z,71.466064
2019-05-26T07:22:55.627Z,70.861816
2019-05-26T07:23:55.729Z,71.063232
2019-05-26T07:24:55.793Z,71.160889
2019-05-26T07:25:55.823Z,70.959473
2019-05-26T07:26:55.992Z,70.825195
2019-05-26T07:27:56.016Z,70.08667
2019-05-26T07:28:56.018Z,69.140625
2019-05-26T07:29:56.144Z,67.559814
2019-05-26T07:30:56.273Z,65.612793
2019-05-26T07:31:56.462Z,64.776611
2019-05-26T07:32:56.511Z,64.105225
2019-05-26T07:33:56.605Z,62.207031
2019-05-26T07:34:56.749Z,60.766602
2019-05-26T07:35:56.770Z,60.467529
2019-05-26T07:36:56.919Z,60.131836
2019-05-26T07:37:56.973Z,59.503174
2019-05-26T07:38:57.005Z,60.107422
2019-05-26T07:39:57.045Z,58.642578
2019-05-26T07:40:57.058Z,58.47168
2019-05-26T07:42:09.071Z,58.441162
2019-05-26T07:42:57.217Z,57.659912
2019-05-26T07:43:57.310Z,55.072021
2019-05-26T07:44:57.465Z,53.442383
2019-05-26T07:45:57.622Z,53.417969
2019-05-26T07:46:57.747Z,52.166748
2019-05-26T07:47:57.900Z,52.416992
2019-05-26T07:48:57.852Z,52.069092
2019-05-26T07:49:57.994Z,49.450684
2019-05-26T07:50:58.169Z,48.034668
2019-05-26T07:51:58.306Z,48.803711
2019-05-26T07:52:58.431Z,48.187256
2019-05-26T07:53:58.437Z,46.966553
2019-05-26T07:54:58.559Z,47.2229
2019-05-26T07:55:58.684Z,46.502686
2019-05-26T07:56:58.848Z,45.587158
2019-05-26T07:57:58.997Z,45.013428
2019-05-26T07:58:58.996Z,45.330811
2019-05-26T08:00:00.134Z,48.010254
2019-05-26T08:00:59.265Z,47.491455
2019-05-26T08:01:59.407Z,47.888184
2019-05-26T08:02:59.580Z,47.070312
2019-05-26T08:03:59.526Z,46.746826
2019-05-26T08:04:59.653Z,45.532227
2019-05-26T08:05:59.651Z,44.915771
2019-05-26T08:06:59.766Z,45.3125
2019-05-26T08:08:11.849Z,44.812012
2019-05-26T08:09:00.985Z,45.874023
2019-05-26T08:10:00.068Z,46.325684
2019-05-26T08:11:00.150Z,46.923828
2019-05-26T08:12:00.354Z,47.369385
2019-05-26T08:13:01.271Z,47.491455
2019-05-26T08:14:00.271Z,48.181152
2019-05-26T08:15:00.429Z,50.268555
2019-05-26T08:16:00.568Z,51.940918
2019-05-26T08:17:00.711Z,52.868652
2019-05-26T08:18:01.005Z,54.223633
2019-05-26T08:19:00.897Z,55.853271
2019-05-26T08:20:01.059Z,55.474854
2019-05-26T08:21:01.156Z,56.304932
2019-05-26T08:22:01.308Z,55.828857
2019-05-26T08:23:01.415Z,57.366943
2019-05-26T08:24:03.897Z,57.568359
2019-05-26T08:25:01.473Z,57.495117
2019-05-26T08:26:01.569Z,57.592773
2019-05-26T08:27:01.718Z,57.592773
2019-05-26T08:28:01.831Z,58.093262
2019-05-26T08:29:01.791Z,56.488037
2019-05-26T08:30:02.045Z,56.915283
2019-05-26T08:31:01.914Z,57.421875
2019-05-26T08:32:01.990Z,58.325195
2019-05-26T08:33:02.056Z,57.421875
2019-05-26T08:34:01.996Z,57.696533
2019-05-26T08:35:02.032Z,57.897949
2019-05-26T08:36:02.163Z,56.384277
2019-05-26T08:37:02.161Z,57.092285
2019-05-26T08:38:02.228Z,56.213379
2019-05-26T08:39:02.262Z,57.116699
2019-05-26T08:40:02.423Z,57.318115
2019-05-26T08:41:02.351Z,56.817627
2019-05-26T08:42:02.480Z,56.542969
2019-05-26T08:43:02.646Z,57.043457
2019-05-26T08:44:02.747Z,57.751465
2019-05-26T08:45:02.694Z,58.123779
2019-05-26T08:46:02.823Z,58.02002
2019-05-26T08:47:02.949Z,57.318115
2019-05-26T08:48:02.936Z,56.817627
2019-05-26T08:49:03.010Z,56.616211
2019-05-26T08:50:03.058Z,57.720947
2019-05-26T08:51:03.098Z,57.220459
2019-05-26T08:52:03.185Z,57.220459
2019-05-26T08:53:03.264Z,57.116699
2019-05-26T08:54:03.455Z,57.623291
2019-05-26T08:55:03.451Z,57.421875
2019-05-26T08:56:03.528Z,57.043457
2019-05-26T08:57:03.590Z,56.945801
2019-05-26T08:58:03.655Z,57.849121
2019-05-26T08:59:03.767Z,58.654785
2019-05-26T09:00:03.791Z,57.550049
2019-05-26T09:01:03.813Z,57.244873
2019-05-26T09:02:03.902Z,57.678223
2019-05-26T09:03:03.906Z,58.581543
2019-05-26T09:04:04.111Z,57.977295
2019-05-26T09:05:03.976Z,58.984375
2019-05-26T09:06:04.077Z,58.984375
2019-05-26T09:07:04.261Z,57.373047
2019-05-26T09:08:04.155Z,57.373047
2019-05-26T09:09:04.216Z,57.879639
2019-05-26T09:10:04.330Z,57.678223
2019-05-26T09:11:04.456Z,58.074951
2019-05-26T09:12:04.491Z,57.073975
2019-05-26T09:13:04.566Z,56.671143
2019-05-26T09:14:04.692Z,57.879639
2019-05-26T09:15:04.753Z,56.164551
2019-05-26T09:16:04.791Z,55.560303
2019-05-26T09:17:04.862Z,56.091309
2019-05-26T09:18:04.950Z,56.396484
2019-05-26T09:19:04.940Z,56.195068
2019-05-26T09:20:04.985Z,56.494141
2019-05-26T09:21:05.108Z,56.195068
2019-05-26T09:22:05.179Z,56.091309
2019-05-26T09:23:05.221Z,56.195068
2019-05-26T09:24:05.244Z,56.292725
2019-05-26T09:25:05.314Z,57.403564
2019-05-26T09:26:05.391Z,55.712891
2019-05-26T09:27:05.320Z,56.420898
2019-05-26T09:28:05.353Z,56.622314
2019-05-26T09:29:05.384Z,57.025146
2019-05-26T09:30:05.400Z,57.226562
2019-05-26T09:31:05.446Z,57.830811
2019-05-26T09:32:05.481Z,57.830811
2019-05-26T09:33:05.491Z,57.928467
2019-05-26T09:34:05.519Z,58.538818
2019-05-26T09:35:05.543Z,58.435059
2019-05-26T09:36:05.715Z,58.538818
2019-05-26T09:37:05.728Z,58.94165
2019-05-26T09:38:05.759Z,58.538818
2019-05-26T09:39:05.783Z,58.94165
2019-05-26T09:40:05.799Z,59.143066
2019-05-26T09:41:05.882Z,59.545898
2019-05-26T09:42:05.938Z,58.709717
2019-05-26T09:43:15.434Z,59.716797
2019-05-26T09:44:05.991Z,58.007812
2019-05-26T09:45:06.033Z,58.209229
2019-05-26T09:46:06.138Z,58.984375
2019-05-26T09:47:06.157Z,59.790039
2019-05-26T09:48:06.248Z,58.251953
2019-05-26T09:49:06.265Z,58.453369
2019-05-26T09:50:06.313Z,57.751465
2019-05-26T09:51:06.360Z,57.446289
2019-05-26T09:52:19.356Z,57.849121
2019-05-26T09:53:18.869Z,58.551025
2019-05-26T09:54:18.957Z,58.453369
2019-05-26T09:55:18.995Z,58.02002
2019-05-26T09:56:19.022Z,58.624268
2019-05-26T09:57:19.060Z,58.02002
2019-05-26T09:58:19.091Z,57.116699
2019-05-26T09:59:19.102Z,57.391357
2019-05-26T10:00:19.123Z,55.480957
2019-05-26T10:01:19.168Z,55.987549
2019-05-26T10:02:19.214Z,56.085205
2019-05-26T10:03:19.227Z,56.787109
2019-05-26T10:04:19.290Z,56.787109
2019-05-26T10:05:19.353Z,55.987549
2019-05-26T10:06:19.439Z,55.078125
2019-05-26T10:07:19.483Z,54.449463
2019-05-26T10:08:19.528Z,53.570557
2019-05-26T10:09:19.593Z,54.553223
2019-05-26T10:10:19.632Z,54.553223
2019-05-26T10:11:19.694Z,54.150391
2019-05-26T10:12:19.786Z,54.449463
2019-05-26T10:13:31.156Z,55.352783
2019-05-26T10:14:19.845Z,54.754639
2019-05-26T10:15:19.845Z,54.077148
2019-05-26T10:16:19.960Z,55.383301
2019-05-26T10:17:23.021Z,54.852295
2019-05-26T10:18:19.998Z,55.157471
2019-05-26T10:19:19.998Z,55.352783
2019-05-26T10:20:20.041Z,55.255127
2019-05-26T10:21:20.048Z,55.230713
2019-05-26T10:22:20.076Z,55.932617
2019-05-26T10:23:20.073Z,54.626465
2019-05-26T10:24:20.078Z,53.796387
2019-05-26T10:25:20.239Z,52.893066
2019-05-26T10:26:20.259Z,53.997803
2019-05-26T10:27:20.425Z,52.819824
2019-05-26T10:28:20.450Z,53.820801
2019-05-26T10:29:20.452Z,54.022217
2019-05-26T10:30:20.472Z,53.796387
2019-05-26T10:31:20.481Z,54.296875
2019-05-26T10:32:20.489Z,54.803467
2019-05-26T10:33:20.621Z,54.498291
2019-05-26T10:34:20.578Z,53.900146
2019-05-26T10:35:20.606Z,53.997803
2019-05-26T10:36:20.601Z,54.699707
2019-05-26T10:37:20.625Z,55.078125
2019-05-26T10:38:20.692Z,53.973389
2019-05-26T10:39:20.780Z,53.973389
2019-05-26T10:40:20.757Z,53.674316
2019-05-26T10:41:20.777Z,55.780029
2019-05-26T10:42:20.788Z,53.674316
2019-05-26T10:43:20.848Z,54.376221
2019-05-26T10:44:20.910Z,56.982422
2019-05-26T10:45:20.932Z,54.125977
2019-05-26T10:46:20.939Z,56.134033
2019-05-26T10:47:20.981Z,55.432129
2019-05-26T10:48:21.008Z,55.230713
2019-05-26T10:49:21.050Z,55.029297
2019-05-26T10:50:21.047Z,55.328369
2019-05-26T10:51:21.062Z,55.432129
2019-05-26T10:52:21.078Z,55.731201
2019-05-26T10:53:21.077Z,54.803467
2019-05-26T10:54:21.100Z,55.401611
2019-05-26T10:55:21.148Z,54.602051
2019-05-26T10:56:21.209Z,55.804443
2019-05-26T10:57:21.241Z,55.102539
2019-05-26T10:58:21.257Z,55.932617
2019-05-26T10:59:21.317Z,55.432129
2019-05-26T11:00:21.319Z,55.828857
2019-05-26T11:01:21.337Z,55.908203
2019-05-26T11:02:21.357Z,56.005859
2019-05-26T11:03:21.384Z,55.908203
2019-05-26T11:04:21.489Z,56.811523
2019-05-26T11:05:21.490Z,55.578613
2019-05-26T11:06:21.530Z,54.577637
2019-05-26T11:07:21.624Z,55.578613
2019-05-26T11:08:21.629Z,55.352783
2019-05-26T11:09:21.654Z,54.675293
2019-05-26T11:10:21.671Z,54.071045
2019-05-26T11:11:21.727Z,54.675293
2019-05-26T11:12:21.767Z,54.974365
2019-05-26T11:13:21.777Z,55.102539
2019-05-26T11:14:21.856Z,55.474854
2019-05-26T11:15:21.995Z,55.474854
2019-05-26T11:16:22.043Z,55.67627
2019-05-26T11:17:22.112Z,55.578613
2019-05-26T11:18:22.150Z,55.078125
2019-05-26T11:19:22.240Z,56.079102
2019-05-26T11:20:22.313Z,55.780029
2019-05-26T11:21:22.319Z,56.378174
2019-05-26T11:22:22.341Z,56.182861
2019-05-26T11:23:22.409Z,55.981445
2019-05-26T11:24:22.582Z,55.877686
2019-05-26T11:25:22.617Z,56.280518
2019-05-26T11:26:22.669Z,55.877686